sensor_id;sensor_type;location;lat;lon;timestamp;pressure;altitude;pressure_sealevel;temperature;humidity
72896;BME280;61036;53.224;6.554;2023-03-25T00:01:03;99853.41;;;10.27;100.00
72896;BME280;61036;53.224;6.554;2023-03-25T00:03:30;99849.22;;;10.44;100.00
72896;BME280;61036;53.224;6.554;2023-03-25T00:05:58;99849.63;;;10.09;100.00
72896;BME280;61036;53.224;6.554;2023-03-25T00:08:24;99859.31;;;10.21;100.00
72896;BME280;61036;53.224;6.554;2023-03-25T00:10:53;99846.63;;;10.43;100.00
72896;BME280;61036;53.224;6.554;2023-03-25T00:13:19;99851.16;;;10.33;100.00
72896;BME280;61036;53.224;6.554;2023-03-25T00:15:46;99854.25;;;10.28;100.00
72896;BME280;61036;53.224;6.554;2023-03-25T00:18:14;99843.47;;;10.28;100.00
72896;BME280;61036;53.224;6.554;2023-03-25T00:20:42;99846.94;;;10.49;100.00
72896;BME280;61036;53.224;6.554;2023-03-25T00:23:11;99842.91;;;10.34;100.00
72896;BME280;61036;53.224;6.554;2023-03-25T00:25:37;99846.63;;;10.33;100.00
72896;BME280;61036;53.224;6.554;2023-03-25T00:28:03;99849.19;;;10.04;100.00
72896;BME280;61036;53.224;6.554;2023-03-25T00:30:28;99861.50;;;9.97;100.00
72896;BME280;61036;53.224;6.554;2023-03-25T00:32:54;99866.22;;;9.83;100.00
72896;BME280;61036;53.224;6.554;2023-03-25T00:35:22;99861.81;;;9.73;100.00
72896;BME280;61036;53.224;6.554;2023-03-25T00:37:50;99859.31;;;9.81;100.00
72896;BME280;61036;53.224;6.554;2023-03-25T00:40:30;99864.72;;;9.91;100.00
72896;BME280;61036;53.224;6.554;2023-03-25T00:43:00;99860.94;;;9.72;100.00
72896;BME280;61036;53.224;6.554;2023-03-25T00:45:25;99871.78;;;9.61;100.00
72896;BME280;61036;53.224;6.554;2023-03-25T00:47:51;99860.59;;;9.66;100.00
72896;BME280;61036;53.224;6.554;2023-03-25T00:50:17;99860.03;;;9.62;100.00
72896;BME280;61036;53.224;6.554;2023-03-25T00:52:43;99862.16;;;9.89;100.00
72896;BME280;61036;53.224;6.554;2023-03-25T00:55:09;99854.56;;;9.73;100.00
72896;BME280;61036;53.224;6.554;2023-03-25T00:57:35;99856.72;;;9.79;100.00
72896;BME280;61036;53.224;6.554;2023-03-25T01:00:02;99868.56;;;9.67;100.00
72896;BME280;61036;53.224;6.554;2023-03-25T01:02:30;99869.69;;;9.65;100.00
72896;BME280;61036;53.224;6.554;2023-03-25T01:04:58;99870.59;;;9.75;100.00
72896;BME280;61036;53.224;6.554;2023-03-25T01:07:24;99869.53;;;9.87;100.00
72896;BME280;61036;53.224;6.554;2023-03-25T01:09:50;99862.91;;;9.70;100.00
72896;BME280;61036;53.224;6.554;2023-03-25T01:12:16;99864.63;;;9.50;100.00
72896;BME280;61036;53.224;6.554;2023-03-25T01:14:43;99872.53;;;9.63;100.00
72896;BME280;61036;53.224;6.554;2023-03-25T01:17:09;99867.44;;;9.70;100.00
72896;BME280;61036;53.224;6.554;2023-03-25T01:19:35;99863.13;;;9.57;100.00
72896;BME280;61036;53.224;6.554;2023-03-25T01:22:01;99860.50;;;9.67;100.00
72896;BME280;61036;53.224;6.554;2023-03-25T01:24:27;99866.66;;;9.79;100.00
72896;BME280;61036;53.224;6.554;2023-03-25T01:26:52;99864.50;;;9.73;100.00
72896;BME280;61036;53.224;6.554;2023-03-25T01:29:20;99862.13;;;9.58;100.00
72896;BME280;61036;53.224;6.554;2023-03-25T01:31:46;99863.19;;;9.46;100.00
72896;BME280;61036;53.224;6.554;2023-03-25T01:34:13;99858.19;;;9.42;100.00
72896;BME280;61036;53.224;6.554;2023-03-25T01:36:42;99862.19;;;9.47;100.00
72896;BME280;61036;53.224;6.554;2023-03-25T01:39:12;99860.50;;;9.46;100.00
72896;BME280;61036;53.224;6.554;2023-03-25T01:41:41;99864.97;;;9.57;100.00
72896;BME280;61036;53.224;6.554;2023-03-25T01:46:37;99852.44;;;9.25;100.00
72896;BME280;61036;53.224;6.554;2023-03-25T01:49:09;99852.31;;;9.27;100.00
72896;BME280;61036;53.224;6.554;2023-03-25T01:51:40;99861.34;;;9.47;100.00
72896;BME280;61036;53.224;6.554;2023-03-25T01:54:07;99852.69;;;9.64;100.00
72896;BME280;61036;53.224;6.554;2023-03-25T01:56:35;99853.88;;;9.29;100.00
72896;BME280;61036;53.224;6.554;2023-03-25T01:59:05;99855.38;;;9.43;100.00
72896;BME280;61036;53.224;6.554;2023-03-25T02:01:33;99850.28;;;9.19;100.00
72896;BME280;61036;53.224;6.554;2023-03-25T02:04:01;99854.53;;;9.22;100.00
72896;BME280;61036;53.224;6.554;2023-03-25T02:06:50;99849.47;;;9.28;100.00
72896;BME280;61036;53.224;6.554;2023-03-25T02:09:21;99843.09;;;9.29;100.00
72896;BME280;61036;53.224;6.554;2023-03-25T02:11:48;99852.22;;;9.17;100.00
72896;BME280;61036;53.224;6.554;2023-03-25T02:14:20;99844.25;;;9.48;100.00
72896;BME280;61036;53.224;6.554;2023-03-25T02:28:06;99838.66;;;9.60;100.00
72896;BME280;61036;53.224;6.554;2023-03-25T02:30:49;99839.94;;;9.66;100.00
72896;BME280;61036;53.224;6.554;2023-03-25T02:39:49;99825.69;;;9.75;100.00
72896;BME280;61036;53.224;6.554;2023-03-25T02:42:24;99827.16;;;9.37;100.00
72896;BME280;61036;53.224;6.554;2023-03-25T02:44:58;99830.94;;;9.56;100.00
72896;BME280;61036;53.224;6.554;2023-03-25T02:47:30;99826.56;;;9.55;100.00
72896;BME280;61036;53.224;6.554;2023-03-25T02:50:03;99826.56;;;9.55;100.00
72896;BME280;61036;53.224;6.554;2023-03-25T02:52:36;99826.69;;;9.53;100.00
72896;BME280;61036;53.224;6.554;2023-03-25T02:55:07;99827.69;;;9.83;100.00
72896;BME280;61036;53.224;6.554;2023-03-25T02:57:38;99825.88;;;9.62;100.00
72896;BME280;61036;53.224;6.554;2023-03-25T03:00:06;99823.59;;;9.58;100.00
72896;BME280;61036;53.224;6.554;2023-03-25T03:02:55;99814.72;;;9.67;100.00
72896;BME280;61036;53.224;6.554;2023-03-25T03:05:45;99816.34;;;9.28;100.00
72896;BME280;61036;53.224;6.554;2023-03-25T03:11:01;99816.97;;;9.62;100.00
72896;BME280;61036;53.224;6.554;2023-03-25T03:13:48;99815.59;;;9.47;100.00
72896;BME280;61036;53.224;6.554;2023-03-25T03:16:32;99819.16;;;9.47;100.00
72896;BME280;61036;53.224;6.554;2023-03-25T03:24:40;99807.69;;;9.45;100.00
72896;BME280;61036;53.224;6.554;2023-03-25T03:30:27;99798.84;;;9.64;100.00
72896;BME280;61036;53.224;6.554;2023-03-25T03:36:01;99802.97;;;9.68;100.00
72896;BME280;61036;53.224;6.554;2023-03-25T03:38:33;99798.22;;;9.51;100.00
72896;BME280;61036;53.224;6.554;2023-03-25T03:41:05;99788.03;;;9.54;100.00
72896;BME280;61036;53.224;6.554;2023-03-25T03:43:38;99794.66;;;9.50;100.00
72896;BME280;61036;53.224;6.554;2023-03-25T03:46:11;99797.31;;;9.41;100.00
72896;BME280;61036;53.224;6.554;2023-03-25T03:48:46;99801.88;;;9.50;100.00
72896;BME280;61036;53.224;6.554;2023-03-25T03:51:18;99808.59;;;9.34;100.00
72896;BME280;61036;53.224;6.554;2023-03-25T03:53:53;99804.19;;;9.54;100.00
72896;BME280;61036;53.224;6.554;2023-03-25T03:56:39;99810.28;;;9.56;100.00
72896;BME280;61036;53.224;6.554;2023-03-25T04:02:05;99799.06;;;9.51;100.00
72896;BME280;61036;53.224;6.554;2023-03-25T04:04:33;99815.50;;;9.27;100.00
72896;BME280;61036;53.224;6.554;2023-03-25T04:07:13;99813.88;;;9.36;100.00
72896;BME280;61036;53.224;6.554;2023-03-25T04:12:28;99811.28;;;9.34;100.00
72896;BME280;61036;53.224;6.554;2023-03-25T04:14:56;99813.78;;;9.26;100.00
72896;BME280;61036;53.224;6.554;2023-03-25T04:17:24;99812.13;;;9.35;100.00
72896;BME280;61036;53.224;6.554;2023-03-25T04:19:50;99813.34;;;9.21;100.00
72896;BME280;61036;53.224;6.554;2023-03-25T04:22:18;99811.44;;;9.12;100.00
72896;BME280;61036;53.224;6.554;2023-03-25T04:24:44;99807.88;;;9.32;100.00
72896;BME280;61036;53.224;6.554;2023-03-25T04:27:17;99810.25;;;9.26;100.00
72896;BME280;61036;53.224;6.554;2023-03-25T04:29:43;99808.06;;;9.20;100.00
72896;BME280;61036;53.224;6.554;2023-03-25T04:32:12;99812.13;;;9.56;100.00
72896;BME280;61036;53.224;6.554;2023-03-25T04:34:39;99808.22;;;9.39;100.00
72896;BME280;61036;53.224;6.554;2023-03-25T04:37:05;99804.78;;;9.37;100.00
72896;BME280;61036;53.224;6.554;2023-03-25T04:39:31;99814.19;;;9.43;100.00
72896;BME280;61036;53.224;6.554;2023-03-25T04:41:57;99811.97;;;9.27;100.00
72896;BME280;61036;53.224;6.554;2023-03-25T04:44:28;99809.28;;;9.27;100.00
72896;BME280;61036;53.224;6.554;2023-03-25T04:46:58;99807.03;;;9.32;100.00
72896;BME280;61036;53.224;6.554;2023-03-25T04:49:25;99809.44;;;9.35;100.00
72896;BME280;61036;53.224;6.554;2023-03-25T04:51:52;99815.03;;;9.43;100.00
72896;BME280;61036;53.224;6.554;2023-03-25T04:54:19;99823.31;;;9.30;100.00
72896;BME280;61036;53.224;6.554;2023-03-25T04:56:45;99807.88;;;9.32;100.00
72896;BME280;61036;53.224;6.554;2023-03-25T04:59:19;99807.44;;;9.27;100.00
72896;BME280;61036;53.224;6.554;2023-03-25T05:01:46;99804.06;;;9.35;100.00
72896;BME280;61036;53.224;6.554;2023-03-25T05:04:13;99804.75;;;9.27;100.00
72896;BME280;61036;53.224;6.554;2023-03-25T05:06:46;99796.13;;;9.54;100.00
72896;BME280;61036;53.224;6.554;2023-03-25T05:09:15;99804.06;;;9.66;100.00
72896;BME280;61036;53.224;6.554;2023-03-25T05:11:44;99800.84;;;9.20;100.00
72896;BME280;61036;53.224;6.554;2023-03-25T05:14:11;99793.94;;;9.18;100.00
72896;BME280;61036;53.224;6.554;2023-03-25T05:16:37;99797.72;;;9.36;100.00
72896;BME280;61036;53.224;6.554;2023-03-25T05:19:03;99805.97;;;9.44;100.00
72896;BME280;61036;53.224;6.554;2023-03-25T05:21:35;99813.69;;;9.58;100.00
72896;BME280;61036;53.224;6.554;2023-03-25T05:24:09;99804.25;;;9.43;100.00
72896;BME280;61036;53.224;6.554;2023-03-25T05:26:37;99808.34;;;9.37;100.00
72896;BME280;61036;53.224;6.554;2023-03-25T05:29:05;99801.56;;;9.43;100.00
72896;BME280;61036;53.224;6.554;2023-03-25T05:31:31;99798.75;;;9.45;100.00
72896;BME280;61036;53.224;6.554;2023-03-25T05:33:56;99806.41;;;9.49;100.00
72896;BME280;61036;53.224;6.554;2023-03-25T05:36:22;99800.59;;;9.23;100.00
72896;BME280;61036;53.224;6.554;2023-03-25T05:38:53;99814.66;;;9.27;100.00
72896;BME280;61036;53.224;6.554;2023-03-25T05:41:20;99817.78;;;9.32;100.00
72896;BME280;61036;53.224;6.554;2023-03-25T05:43:48;99809.84;;;9.51;100.00
72896;BME280;61036;53.224;6.554;2023-03-25T05:46:18;99811.06;;;9.47;100.00
72896;BME280;61036;53.224;6.554;2023-03-25T05:48:44;99816.56;;;9.36;100.00
72896;BME280;61036;53.224;6.554;2023-03-25T05:51:17;99819.88;;;9.49;100.00
72896;BME280;61036;53.224;6.554;2023-03-25T05:53:46;99824.09;;;9.42;100.00
72896;BME280;61036;53.224;6.554;2023-03-25T05:56:18;99827.41;;;9.55;100.00
72896;BME280;61036;53.224;6.554;2023-03-25T05:58:48;99817.41;;;9.67;100.00
72896;BME280;61036;53.224;6.554;2023-03-25T06:01:14;99819.09;;;9.37;100.00
72896;BME280;61036;53.224;6.554;2023-03-25T06:03:40;99819.16;;;9.47;100.00
72896;BME280;61036;53.224;6.554;2023-03-25T06:06:07;99817.69;;;9.64;100.00
72896;BME280;61036;53.224;6.554;2023-03-25T06:08:42;99817.53;;;9.35;100.00
72896;BME280;61036;53.224;6.554;2023-03-25T06:11:09;99823.34;;;9.61;100.00
72896;BME280;61036;53.224;6.554;2023-03-25T06:13:38;99820.13;;;9.46;100.00
72896;BME280;61036;53.224;6.554;2023-03-25T06:16:05;99820.66;;;9.61;100.00
72896;BME280;61036;53.224;6.554;2023-03-25T06:18:37;99821.69;;;9.70;100.00
72896;BME280;61036;53.224;6.554;2023-03-25T06:21:03;99810.50;;;9.74;100.00
72896;BME280;61036;53.224;6.554;2023-03-25T06:23:30;99812.13;;;9.56;100.00
72896;BME280;61036;53.224;6.554;2023-03-25T06:26:00;99812.78;;;9.48;100.00
72896;BME280;61036;53.224;6.554;2023-03-25T06:28:25;99810.97;;;9.49;100.00
72896;BME280;61036;53.224;6.554;2023-03-25T06:30:51;99808.91;;;9.41;100.00
72896;BME280;61036;53.224;6.554;2023-03-25T06:33:17;99818.03;;;9.50;100.00
72896;BME280;61036;53.224;6.554;2023-03-25T06:35:46;99818.88;;;9.50;100.00
72896;BME280;61036;53.224;6.554;2023-03-25T06:38:18;99830.38;;;9.10;100.00
72896;BME280;61036;53.224;6.554;2023-03-25T06:41:04;99838.91;;;8.95;100.00
72896;BME280;61036;53.224;6.554;2023-03-25T06:43:32;99835.81;;;9.20;100.00
72896;BME280;61036;53.224;6.554;2023-03-25T06:46:16;99824.25;;;8.87;100.00
72896;BME280;61036;53.224;6.554;2023-03-25T06:49:02;99830.38;;;9.10;100.00
72896;BME280;61036;53.224;6.554;2023-03-25T06:51:27;99834.59;;;9.24;100.00
72896;BME280;61036;53.224;6.554;2023-03-25T06:53:53;99832.19;;;9.21;100.00
72896;BME280;61036;53.224;6.554;2023-03-25T06:56:18;99826.84;;;9.31;100.00
72896;BME280;61036;53.224;6.554;2023-03-25T06:58:44;99829.38;;;9.32;100.00
72896;BME280;61036;53.224;6.554;2023-03-25T07:01:10;99826.31;;;9.58;100.00
72896;BME280;61036;53.224;6.554;2023-03-25T07:03:36;99825.19;;;9.60;100.00
72896;BME280;61036;53.224;6.554;2023-03-25T07:06:03;99821.97;;;9.67;100.00
72896;BME280;61036;53.224;6.554;2023-03-25T07:08:28;99819.31;;;9.76;100.00
72896;BME280;61036;53.224;6.554;2023-03-25T07:11:03;99817.44;;;10.07;100.00
72896;BME280;61036;53.224;6.554;2023-03-25T07:13:28;99819.53;;;9.94;100.00
72896;BME280;61036;53.224;6.554;2023-03-25T07:15:56;99807.97;;;9.73;100.00
72896;BME280;61036;53.224;6.554;2023-03-25T07:18:22;99821.38;;;10.34;100.00
72896;BME280;61036;53.224;6.554;2023-03-25T07:20:48;99816.59;;;10.17;100.00
72896;BME280;61036;53.224;6.554;2023-03-25T07:23:13;99816.88;;;9.73;100.00
72896;BME280;61036;53.224;6.554;2023-03-25T07:25:39;99818.56;;;9.74;100.00
72896;BME280;61036;53.224;6.554;2023-03-25T07:28:04;99828.53;;;9.32;100.00
72896;BME280;61036;53.224;6.554;2023-03-25T07:30:32;99816.66;;;9.34;100.00
72896;BME280;61036;53.224;6.554;2023-03-25T07:32:57;99827.84;;;9.30;100.00
72896;BME280;61036;53.224;6.554;2023-03-25T07:35:23;99831.69;;;9.37;100.00
72896;BME280;61036;53.224;6.554;2023-03-25T07:37:48;99834.09;;;9.61;100.00
72896;BME280;61036;53.224;6.554;2023-03-25T07:40:14;99827.69;;;9.52;100.00
72896;BME280;61036;53.224;6.554;2023-03-25T07:42:40;99820.91;;;9.58;100.00
72896;BME280;61036;53.224;6.554;2023-03-25T07:45:14;99827.63;;;9.22;100.00
72896;BME280;61036;53.224;6.554;2023-03-25T07:47:42;99827.09;;;9.49;100.00
72896;BME280;61036;53.224;6.554;2023-03-25T07:50:17;99846.53;;;9.31;100.00
72896;BME280;61036;53.224;6.554;2023-03-25T07:52:43;99826.97;;;9.08;100.00
72896;BME280;61036;53.224;6.554;2023-03-25T07:55:09;99835.91;;;9.30;100.00
72896;BME280;61036;53.224;6.554;2023-03-25T07:57:34;99845.16;;;9.16;100.00
72896;BME280;61036;53.224;6.554;2023-03-25T08:00:00;99853.22;;;9.16;100.00
72896;BME280;61036;53.224;6.554;2023-03-25T08:02:26;99850.66;;;9.35;100.00
72896;BME280;61036;53.224;6.554;2023-03-25T08:04:52;99850.91;;;9.53;100.00
72896;BME280;61036;53.224;6.554;2023-03-25T08:07:22;99857.53;;;9.70;100.00
72896;BME280;61036;53.224;6.554;2023-03-25T08:09:47;99855.00;;;9.69;100.00
72896;BME280;61036;53.224;6.554;2023-03-25T08:12:13;99846.91;;;9.69;100.00
72896;BME280;61036;53.224;6.554;2023-03-25T08:14:38;99853.53;;;9.65;100.00
72896;BME280;61036;53.224;6.554;2023-03-25T08:17:05;99849.22;;;9.83;100.00
72896;BME280;61036;53.224;6.554;2023-03-25T08:19:31;99853.16;;;9.48;100.00
72896;BME280;61036;53.224;6.554;2023-03-25T08:21:56;99857.88;;;9.56;100.00
72896;BME280;61036;53.224;6.554;2023-03-25T08:24:22;99854.06;;;9.58;100.00
72896;BME280;61036;53.224;6.554;2023-03-25T08:26:49;99860.97;;;9.30;100.00
72896;BME280;61036;53.224;6.554;2023-03-25T08:29:15;99857.00;;;9.76;100.00
72896;BME280;61036;53.224;6.554;2023-03-25T08:31:41;99849.69;;;9.88;100.00
72896;BME280;61036;53.224;6.554;2023-03-25T08:34:11;99848.19;;;9.74;100.00
72896;BME280;61036;53.224;6.554;2023-03-25T08:36:37;99849.75;;;9.77;100.00
72896;BME280;61036;53.224;6.554;2023-03-25T08:39:05;99851.00;;;9.42;100.00
72896;BME280;61036;53.224;6.554;2023-03-25T08:41:36;99853.75;;;9.82;100.00
72896;BME280;61036;53.224;6.554;2023-03-25T08:44:06;99853.13;;;10.00;100.00
72896;BME280;61036;53.224;6.554;2023-03-25T08:46:32;99854.09;;;9.68;100.00
72896;BME280;61036;53.224;6.554;2023-03-25T08:48:57;99864.38;;;9.53;100.00
72896;BME280;61036;53.224;6.554;2023-03-25T08:51:24;99862.38;;;9.76;100.00
72896;BME280;61036;53.224;6.554;2023-03-25T08:53:49;99869.63;;;9.55;100.00
72896;BME280;61036;53.224;6.554;2023-03-25T08:56:15;99868.91;;;9.53;100.00
72896;BME280;61036;53.224;6.554;2023-03-25T08:58:41;99868.03;;;9.73;100.00
72896;BME280;61036;53.224;6.554;2023-03-25T09:01:06;99861.53;;;9.76;100.00
72896;BME280;61036;53.224;6.554;2023-03-25T09:03:32;99860.72;;;10.16;100.00
72896;BME280;61036;53.224;6.554;2023-03-25T09:06:05;99860.25;;;12.15;100.00
72896;BME280;61036;53.224;6.554;2023-03-25T09:08:31;99862.75;;;10.93;100.00
72896;BME280;61036;53.224;6.554;2023-03-25T09:10:57;99859.91;;;10.94;100.00
72896;BME280;61036;53.224;6.554;2023-03-25T09:13:22;99856.09;;;11.83;100.00
72896;BME280;61036;53.224;6.554;2023-03-25T09:15:48;99843.53;;;12.56;100.00
72896;BME280;61036;53.224;6.554;2023-03-25T09:18:13;99825.53;;;13.01;100.00
72896;BME280;61036;53.224;6.554;2023-03-25T09:20:39;99823.34;;;15.02;100.00
72896;BME280;61036;53.224;6.554;2023-03-25T09:23:05;99825.94;;;12.88;100.00
72896;BME280;61036;53.224;6.554;2023-03-25T09:25:31;99835.88;;;11.97;100.00
72896;BME280;61036;53.224;6.554;2023-03-25T09:27:57;99826.25;;;12.22;100.00
72896;BME280;61036;53.224;6.554;2023-03-25T09:30:22;99828.31;;;12.91;100.00
72896;BME280;61036;53.224;6.554;2023-03-25T09:32:48;99841.25;;;12.06;100.00
72896;BME280;61036;53.224;6.554;2023-03-25T09:35:13;99842.13;;;11.21;100.00
72896;BME280;61036;53.224;6.554;2023-03-25T09:37:39;99851.75;;;11.62;100.00
72896;BME280;61036;53.224;6.554;2023-03-25T09:40:05;99861.72;;;11.33;100.00
72896;BME280;61036;53.224;6.554;2023-03-25T09:47:55;99869.84;;;11.23;100.00
72896;BME280;61036;53.224;6.554;2023-03-25T09:50:23;99867.00;;;11.34;100.00
72896;BME280;61036;53.224;6.554;2023-03-25T09:53:00;99869.41;;;11.08;100.00
72896;BME280;61036;53.224;6.554;2023-03-25T09:55:32;99862.44;;;11.35;100.00
72896;BME280;61036;53.224;6.554;2023-03-25T09:58:17;99848.34;;;12.07;100.00
72896;BME280;61036;53.224;6.554;2023-03-25T10:03:53;99861.53;;;11.63;100.00
72896;BME280;61036;53.224;6.554;2023-03-25T10:06:20;99874.22;;;10.75;100.00
72896;BME280;61036;53.224;6.554;2023-03-25T10:14:20;99888.47;;;11.16;100.00
72896;BME280;61036;53.224;6.554;2023-03-25T10:17:03;99881.31;;;11.25;100.00
72896;BME280;61036;53.224;6.554;2023-03-25T10:22:06;99888.47;;;11.16;100.00
72896;BME280;61036;53.224;6.554;2023-03-25T10:24:38;99882.03;;;11.47;100.00
72896;BME280;61036;53.224;6.554;2023-03-25T10:27:42;99895.84;;;11.14;100.00
72896;BME280;61036;53.224;6.554;2023-03-25T10:32:48;99896.81;;;11.52;100.00
72896;BME280;61036;53.224;6.554;2023-03-25T10:35:26;99885.44;;;11.39;100.00
72896;BME280;61036;53.224;6.554;2023-03-25T10:37:53;99881.78;;;11.20;100.00
72896;BME280;61036;53.224;6.554;2023-03-25T10:40:25;99884.59;;;11.19;100.00
72896;BME280;61036;53.224;6.554;2023-03-25T10:43:11;99890.25;;;11.64;100.00
72896;BME280;61036;53.224;6.554;2023-03-25T10:45:40;99885.84;;;11.63;100.00
72896;BME280;61036;53.224;6.554;2023-03-25T10:48:20;99881.47;;;11.53;100.00
72896;BME280;61036;53.224;6.554;2023-03-25T10:50:48;99890.13;;;11.37;100.00
72896;BME280;61036;53.224;6.554;2023-03-25T10:53:25;99896.34;;;11.66;100.00
72896;BME280;61036;53.224;6.554;2023-03-25T10:56:14;99899.38;;;11.15;100.00
72896;BME280;61036;53.224;6.554;2023-03-25T10:58:43;99888.28;;;11.28;100.00
72896;BME280;61036;53.224;6.554;2023-03-25T11:01:17;99904.78;;;11.25;100.00
72896;BME280;61036;53.224;6.554;2023-03-25T11:03:45;99891.88;;;11.28;100.00
72896;BME280;61036;53.224;6.554;2023-03-25T11:06:33;99894.19;;;11.80;100.00
72896;BME280;61036;53.224;6.554;2023-03-25T11:11:34;99891.66;;;11.68;100.00
72896;BME280;61036;53.224;6.554;2023-03-25T11:14:00;99883.00;;;11.65;100.00
72896;BME280;61036;53.224;6.554;2023-03-25T11:16:31;99897.19;;;12.24;100.00
72896;BME280;61036;53.224;6.554;2023-03-25T11:19:00;99870.16;;;11.96;100.00
72896;BME280;61036;53.224;6.554;2023-03-25T11:21:31;99881.00;;;11.86;100.00
72896;BME280;61036;53.224;6.554;2023-03-25T11:23:58;99894.09;;;11.62;100.00
72896;BME280;61036;53.224;6.554;2023-03-25T11:26:27;99873.66;;;11.50;100.00
72896;BME280;61036;53.224;6.554;2023-03-25T11:29:05;99894.91;;;11.72;100.00
72896;BME280;61036;53.224;6.554;2023-03-25T11:31:36;99878.38;;;12.04;100.00
72896;BME280;61036;53.224;6.554;2023-03-25T11:36:37;99873.00;;;11.95;100.00
72896;BME280;61036;53.224;6.554;2023-03-25T11:41:48;99890.66;;;11.70;100.00
72896;BME280;61036;53.224;6.554;2023-03-25T11:44:34;99882.72;;;12.15;100.00
72896;BME280;61036;53.224;6.554;2023-03-25T11:47:03;99890.16;;;12.03;100.00
72896;BME280;61036;53.224;6.554;2023-03-25T11:49:33;99871.06;;;12.70;100.00
72896;BME280;61036;53.224;6.554;2023-03-25T11:52:13;99869.13;;;12.80;100.00
72896;BME280;61036;53.224;6.554;2023-03-25T11:54:43;99868.50;;;12.68;100.00
72896;BME280;61036;53.224;6.554;2023-03-25T11:57:19;99867.13;;;12.37;100.00
72896;BME280;61036;53.224;6.554;2023-03-25T11:59:48;99867.03;;;12.74;100.00
72896;BME280;61036;53.224;6.554;2023-03-25T12:04:57;99850.50;;;12.95;100.00
72896;BME280;61036;53.224;6.554;2023-03-25T12:07:23;99849.16;;;12.63;100.00
72896;BME280;61036;53.224;6.554;2023-03-25T12:09:57;99857.56;;;12.88;100.00
72896;BME280;61036;53.224;6.554;2023-03-25T12:12:45;99843.78;;;12.99;100.00
72896;BME280;61036;53.224;6.554;2023-03-25T12:15:34;99855.22;;;13.29;100.00
72896;BME280;61036;53.224;6.554;2023-03-25T12:18:22;99849.78;;;12.75;100.00
72896;BME280;61036;53.224;6.554;2023-03-25T12:26:34;99850.28;;;12.70;100.00
72896;BME280;61036;53.224;6.554;2023-03-25T12:44:55;99840.88;;;12.47;100.00
72896;BME280;61036;53.224;6.554;2023-03-25T12:47:30;99835.03;;;12.24;100.00
72896;BME280;61036;53.224;6.554;2023-03-25T12:50:22;99831.53;;;12.41;100.00
72896;BME280;61036;53.224;6.554;2023-03-25T12:56:04;99835.91;;;11.87;100.00
72896;BME280;61036;53.224;6.554;2023-03-25T13:07:03;99862.59;;;10.85;100.00
72896;BME280;61036;53.224;6.554;2023-03-25T13:09:33;99863.53;;;10.45;100.00
72896;BME280;61036;53.224;6.554;2023-03-25T13:12:10;99861.09;;;10.32;100.00
72896;BME280;61036;53.224;6.554;2023-03-25T13:14:46;99867.09;;;10.55;100.00
72896;BME280;61036;53.224;6.554;2023-03-25T13:17:25;99872.63;;;10.53;100.00
72896;BME280;61036;53.224;6.554;2023-03-25T13:19:56;99878.84;;;10.44;100.00
72896;BME280;61036;53.224;6.554;2023-03-25T13:22:28;99880.72;;;10.53;100.00
72896;BME280;61036;53.224;6.554;2023-03-25T13:24:58;99875.91;;;10.57;100.00
72896;BME280;61036;53.224;6.554;2023-03-25T13:27:31;99875.50;;;10.91;100.00
72896;BME280;61036;53.224;6.554;2023-03-25T13:29:57;99873.38;;;11.24;100.00
72896;BME280;61036;53.224;6.554;2023-03-25T13:32:28;99874.50;;;11.50;100.00
72896;BME280;61036;53.224;6.554;2023-03-25T13:35:14;99853.97;;;11.86;100.00
72896;BME280;61036;53.224;6.554;2023-03-25T13:37:45;99858.75;;;11.07;100.00
72896;BME280;61036;53.224;6.554;2023-03-25T13:41:03;99871.25;;;10.98;100.00
72896;BME280;61036;53.224;6.554;2023-03-25T13:43:14;99863.44;;;10.75;100.00
72896;BME280;61036;53.224;6.554;2023-03-25T13:46:04;99854.66;;;11.03;100.00
72896;BME280;61036;53.224;6.554;2023-03-25T13:48:54;99855.06;;;10.98;100.00
72896;BME280;61036;53.224;6.554;2023-03-25T13:51:21;99858.31;;;10.72;100.00
72896;BME280;61036;53.224;6.554;2023-03-25T13:53:58;99851.81;;;10.25;100.00
72896;BME280;61036;53.224;6.554;2023-03-25T14:10:58;99929.06;;;8.66;100.00
72896;BME280;61036;53.224;6.554;2023-03-25T14:13:35;99916.84;;;8.62;100.00
72896;BME280;61036;53.224;6.554;2023-03-25T14:16:07;99912.44;;;8.73;100.00
72896;BME280;61036;53.224;6.554;2023-03-25T14:18:42;99911.16;;;8.88;100.00
72896;BME280;61036;53.224;6.554;2023-03-25T14:24:34;99907.00;;;10.00;100.00
72896;BME280;61036;53.224;6.554;2023-03-25T14:27:16;99899.53;;;10.44;100.00
72896;BME280;61036;53.224;6.554;2023-03-25T14:29:56;99890.59;;;10.34;100.00
72896;BME280;61036;53.224;6.554;2023-03-25T14:32:35;99892.28;;;10.04;100.00
72896;BME280;61036;53.224;6.554;2023-03-25T14:48:49;99901.38;;;10.13;100.00
72896;BME280;61036;53.224;6.554;2023-03-25T14:54:00;99911.75;;;9.87;100.00
72896;BME280;61036;53.224;6.554;2023-03-25T14:56:40;99917.91;;;9.98;100.00
72896;BME280;61036;53.224;6.554;2023-03-25T14:59:08;99914.03;;;10.22;100.00
72896;BME280;61036;53.224;6.554;2023-03-25T15:01:37;99914.09;;;10.01;100.00
72896;BME280;61036;53.224;6.554;2023-03-25T15:06:43;99931.97;;;10.02;100.00
72896;BME280;61036;53.224;6.554;2023-03-25T15:09:13;99930.41;;;9.99;100.00
72896;BME280;61036;53.224;6.554;2023-03-25T15:11:51;99923.13;;;10.21;100.00
72896;BME280;61036;53.224;6.554;2023-03-25T15:14:22;99937.97;;;10.15;100.00
72896;BME280;61036;53.224;6.554;2023-03-25T15:19:16;99942.94;;;9.68;100.00
72896;BME280;61036;53.224;6.554;2023-03-25T15:24:33;99948.31;;;10.10;100.00
72896;BME280;61036;53.224;6.554;2023-03-25T15:27:03;99948.00;;;10.03;100.00
72896;BME280;61036;53.224;6.554;2023-03-25T15:29:44;99956.50;;;9.99;100.00
72896;BME280;61036;53.224;6.554;2023-03-25T15:38:10;99957.72;;;10.25;100.00
72896;BME280;61036;53.224;6.554;2023-03-25T15:49:38;99977.16;;;9.77;100.00
72896;BME280;61036;53.224;6.554;2023-03-25T15:58:02;99987.22;;;9.96;100.00
72896;BME280;61036;53.224;6.554;2023-03-25T16:00:32;99991.34;;;9.58;100.00